sensor_id;sensor_type;location;lat;lon;timestamp;pressure;altitude;pressure_sealevel;temperature;humidity
35989;BME280;22064;42.672;23.282;2023-08-06T00:00:00;93579.19;;;18.06;100.00
35989;BME280;22064;42.672;23.282;2023-08-06T00:02:26;93558.72;;;18.12;100.00
35989;BME280;22064;42.672;23.282;2023-08-06T00:04:52;93611.34;;;18.38;100.00
35989;BME280;22064;42.672;23.282;2023-08-06T00:07:18;93614.88;;;18.51;100.00
35989;BME280;22064;42.672;23.282;2023-08-06T00:09:44;93601.09;;;18.45;100.00
35989;BME280;22064;42.672;23.282;2023-08-06T00:12:10;93609.63;;;18.51;100.00
35989;BME280;22064;42.672;23.282;2023-08-06T00:14:36;93621.69;;;18.52;100.00
35989;BME280;22064;42.672;23.282;2023-08-06T00:17:02;93605.09;;;18.60;100.00
35989;BME280;22064;42.672;23.282;2023-08-06T00:19:28;93597.44;;;18.67;100.00
35989;BME280;22064;42.672;23.282;2023-08-06T00:21:53;93607.47;;;18.82;100.00
35989;BME280;22064;42.672;23.282;2023-08-06T00:24:19;93609.63;;;18.89;100.00
35989;BME280;22064;42.672;23.282;2023-08-06T00:26:46;93603.56;;;18.88;100.00
35989;BME280;22064;42.672;23.282;2023-08-06T00:29:12;93612.59;;;19.08;100.00
35989;BME280;22064;42.672;23.282;2023-08-06T00:31:37;93601.59;;;19.06;100.00
35989;BME280;22064;42.672;23.282;2023-08-06T00:34:03;93586.84;;;19.05;100.00
35989;BME280;22064;42.672;23.282;2023-08-06T00:36:29;93573.38;;;19.07;100.00
35989;BME280;22064;42.672;23.282;2023-08-06T00:38:55;93575.59;;;18.96;100.00
35989;BME280;22064;42.672;23.282;2023-08-06T00:41:21;93579.47;;;18.99;100.00
35989;BME280;22064;42.672;23.282;2023-08-06T00:43:48;93569.66;;;18.99;100.00
35989;BME280;22064;42.672;23.282;2023-08-06T00:46:14;93579.53;;;19.11;100.00
35989;BME280;22064;42.672;23.282;2023-08-06T00:48:41;93577.72;;;19.03;100.00
35989;BME280;22064;42.672;23.282;2023-08-06T00:51:10;93577.97;;;18.89;100.00
35989;BME280;22064;42.672;23.282;2023-08-06T00:53:37;93577.06;;;18.85;100.00
35989;BME280;22064;42.672;23.282;2023-08-06T00:56:05;93561.25;;;18.85;100.00
35989;BME280;22064;42.672;23.282;2023-08-06T00:58:33;93567.78;;;18.79;100.00
35989;BME280;22064;42.672;23.282;2023-08-06T01:01:00;93554.44;;;18.75;100.00
35989;BME280;22064;42.672;23.282;2023-08-06T01:03:26;93562.50;;;18.79;100.00
35989;BME280;22064;42.672;23.282;2023-08-06T01:05:53;93538.97;;;18.74;100.00
35989;BME280;22064;42.672;23.282;2023-08-06T01:14:06;93524.81;;;18.10;100.00
35989;BME280;22064;42.672;23.282;2023-08-06T01:16:35;93533.56;;;18.32;100.00
35989;BME280;22064;42.672;23.282;2023-08-06T01:19:01;93540.47;;;18.45;100.00
35989;BME280;22064;42.672;23.282;2023-08-06T01:21:27;93533.38;;;18.37;100.00
35989;BME280;22064;42.672;23.282;2023-08-06T01:23:53;93538.03;;;17.93;100.00
35989;BME280;22064;42.672;23.282;2023-08-06T01:26:24;93546.44;;;17.77;100.00
35989;BME280;22064;42.672;23.282;2023-08-06T01:29:03;93535.72;;;17.65;100.00
35989;BME280;22064;42.672;23.282;2023-08-06T01:31:35;93531.38;;;17.69;100.00
35989;BME280;22064;42.672;23.282;2023-08-06T01:34:05;93531.84;;;17.71;100.00
35989;BME280;22064;42.672;23.282;2023-08-06T01:36:32;93515.91;;;17.59;100.00
35989;BME280;22064;42.672;23.282;2023-08-06T01:38:59;93526.47;;;17.50;100.00
35989;BME280;22064;42.672;23.282;2023-08-06T01:41:25;93535.63;;;17.36;100.00
35989;BME280;22064;42.672;23.282;2023-08-06T01:43:51;93532.03;;;17.31;100.00
35989;BME280;22064;42.672;23.282;2023-08-06T01:46:17;93526.34;;;17.29;100.00
35989;BME280;22064;42.672;23.282;2023-08-06T01:48:43;93524.19;;;17.14;100.00
35989;BME280;22064;42.672;23.282;2023-08-06T01:51:09;93539.78;;;17.28;100.00
35989;BME280;22064;42.672;23.282;2023-08-06T01:53:35;93535.63;;;17.18;100.00
35989;BME280;22064;42.672;23.282;2023-08-06T01:56:02;93528.81;;;17.26;100.00
35989;BME280;22064;42.672;23.282;2023-08-06T01:58:27;93530.84;;;17.29;100.00
35989;BME280;22064;42.672;23.282;2023-08-06T02:00:53;93517.19;;;17.18;100.00
35989;BME280;22064;42.672;23.282;2023-08-06T02:03:20;93520.13;;;17.34;100.00
35989;BME280;22064;42.672;23.282;2023-08-06T02:05:48;93513.16;;;17.47;100.00
35989;BME280;22064;42.672;23.282;2023-08-06T02:08:13;93499.69;;;17.57;100.00
35989;BME280;22064;42.672;23.282;2023-08-06T02:10:39;93510.66;;;17.59;100.00
35989;BME280;22064;42.672;23.282;2023-08-06T02:13:06;93502.81;;;17.42;100.00
35989;BME280;22064;42.672;23.282;2023-08-06T02:15:32;93517.50;;;17.34;100.00
35989;BME280;22064;42.672;23.282;2023-08-06T02:17:59;93522.63;;;17.48;100.00
35989;BME280;22064;42.672;23.282;2023-08-06T02:20:24;93525.81;;;17.62;100.00
35989;BME280;22064;42.672;23.282;2023-08-06T02:22:50;93552.16;;;17.88;100.00
35989;BME280;22064;42.672;23.282;2023-08-06T02:25:16;93533.72;;;17.88;100.00
35989;BME280;22064;42.672;23.282;2023-08-06T02:27:42;93535.75;;;17.83;100.00
35989;BME280;22064;42.672;23.282;2023-08-06T02:30:08;93523.97;;;17.80;100.00
35989;BME280;22064;42.672;23.282;2023-08-06T02:32:34;93508.94;;;17.72;100.00
35989;BME280;22064;42.672;23.282;2023-08-06T02:35:02;93521.47;;;17.92;100.00
35989;BME280;22064;42.672;23.282;2023-08-06T02:37:28;93532.59;;;17.98;100.00
35989;BME280;22064;42.672;23.282;2023-08-06T02:39:53;93557.22;;;17.93;100.00
35989;BME280;22064;42.672;23.282;2023-08-06T02:42:19;93558.34;;;17.84;100.00
35989;BME280;22064;42.672;23.282;2023-08-06T02:44:45;93555.09;;;17.78;100.00
35989;BME280;22064;42.672;23.282;2023-08-06T02:47:11;93550.59;;;17.78;100.00
35989;BME280;22064;42.672;23.282;2023-08-06T02:49:37;93548.72;;;17.88;100.00
35989;BME280;22064;42.672;23.282;2023-08-06T02:52:03;93537.09;;;17.97;100.00
35989;BME280;22064;42.672;23.282;2023-08-06T02:54:30;93496.81;;;17.97;100.00
35989;BME280;22064;42.672;23.282;2023-08-06T02:56:56;93487.34;;;18.05;100.00
35989;BME280;22064;42.672;23.282;2023-08-06T02:59:26;93481.97;;;18.22;100.00
35989;BME280;22064;42.672;23.282;2023-08-06T03:02:04;93505.03;;;18.34;100.00
35989;BME280;22064;42.672;23.282;2023-08-06T03:04:59;93502.97;;;18.39;100.00
35989;BME280;22064;42.672;23.282;2023-08-06T03:07:31;93449.69;;;18.34;100.00
35989;BME280;22064;42.672;23.282;2023-08-06T03:10:03;93458.31;;;18.43;100.00
35989;BME280;22064;42.672;23.282;2023-08-06T03:12:29;93499.28;;;18.61;100.00
35989;BME280;22064;42.672;23.282;2023-08-06T03:14:57;93520.97;;;18.67;100.00
35989;BME280;22064;42.672;23.282;2023-08-06T03:17:23;93496.19;;;18.59;100.00
35989;BME280;22064;42.672;23.282;2023-08-06T03:19:49;93457.25;;;18.65;100.00
35989;BME280;22064;42.672;23.282;2023-08-06T03:22:16;93455.88;;;18.59;100.00
35989;BME280;22064;42.672;23.282;2023-08-06T03:24:41;93481.75;;;18.65;100.00
35989;BME280;22064;42.672;23.282;2023-08-06T03:27:08;93486.00;;;18.58;100.00
35989;BME280;22064;42.672;23.282;2023-08-06T03:29:36;93476.75;;;18.43;100.00
35989;BME280;22064;42.672;23.282;2023-08-06T03:32:03;93494.53;;;18.55;100.00
35989;BME280;22064;42.672;23.282;2023-08-06T03:34:29;93509.84;;;18.61;100.00
35989;BME280;22064;42.672;23.282;2023-08-06T03:36:54;93531.13;;;18.86;100.00
35989;BME280;22064;42.672;23.282;2023-08-06T03:39:20;93519.13;;;18.97;100.00
35989;BME280;22064;42.672;23.282;2023-08-06T03:41:46;93522.13;;;18.87;100.00
35989;BME280;22064;42.672;23.282;2023-08-06T03:44:12;93518.25;;;18.84;100.00
35989;BME280;22064;42.672;23.282;2023-08-06T03:46:39;93524.16;;;18.81;100.00
35989;BME280;22064;42.672;23.282;2023-08-06T03:49:07;93515.34;;;18.77;100.00
35989;BME280;22064;42.672;23.282;2023-08-06T03:51:33;93515.50;;;18.72;100.00
35989;BME280;22064;42.672;23.282;2023-08-06T03:54:01;93539.53;;;18.41;100.00
35989;BME280;22064;42.672;23.282;2023-08-06T03:56:27;93522.28;;;18.22;100.00
35989;BME280;22064;42.672;23.282;2023-08-06T03:58:53;93543.31;;;18.31;100.00
35989;BME280;22064;42.672;23.282;2023-08-06T04:01:20;93534.38;;;18.23;100.00
35989;BME280;22064;42.672;23.282;2023-08-06T04:03:47;93526.97;;;18.17;100.00
35989;BME280;22064;42.672;23.282;2023-08-06T04:06:13;93548.94;;;18.21;100.00
35989;BME280;22064;42.672;23.282;2023-08-06T04:08:39;93548.81;;;18.17;100.00
35989;BME280;22064;42.672;23.282;2023-08-06T04:11:07;93548.81;;;18.17;100.00
35989;BME280;22064;42.672;23.282;2023-08-06T04:13:33;93555.00;;;18.13;100.00
35989;BME280;22064;42.672;23.282;2023-08-06T04:16:03;93553.31;;;18.17;100.00
35989;BME280;22064;42.672;23.282;2023-08-06T04:18:30;93547.09;;;18.13;100.00
35989;BME280;22064;42.672;23.282;2023-08-06T04:20:56;93544.03;;;18.11;100.00
35989;BME280;22064;42.672;23.282;2023-08-06T04:23:23;93537.75;;;18.33;100.00
35989;BME280;22064;42.672;23.282;2023-08-06T04:25:55;93545.72;;;18.54;100.00
35989;BME280;22064;42.672;23.282;2023-08-06T04:28:23;93522.53;;;18.38;100.00
35989;BME280;22064;42.672;23.282;2023-08-06T04:30:49;93513.06;;;18.37;100.00
35989;BME280;22064;42.672;23.282;2023-08-06T04:33:15;93525.16;;;18.68;100.00
35989;BME280;22064;42.672;23.282;2023-08-06T04:35:41;93525.97;;;18.89;100.00
35989;BME280;22064;42.672;23.282;2023-08-06T04:38:07;93523.59;;;18.97;100.00
35989;BME280;22064;42.672;23.282;2023-08-06T04:40:35;93510.41;;;18.76;100.00
35989;BME280;22064;42.672;23.282;2023-08-06T04:43:01;93501.88;;;18.79;100.00
35989;BME280;22064;42.672;23.282;2023-08-06T04:45:28;93489.84;;;18.60;100.00
35989;BME280;22064;42.672;23.282;2023-08-06T04:47:54;93477.13;;;18.33;100.00
35989;BME280;22064;42.672;23.282;2023-08-06T04:50:20;93483.94;;;18.34;100.00
35989;BME280;22064;42.672;23.282;2023-08-06T04:52:46;93479.31;;;18.31;100.00
35989;BME280;22064;42.672;23.282;2023-08-06T04:55:12;93475.94;;;18.21;100.00
35989;BME280;22064;42.672;23.282;2023-08-06T04:57:38;93485.22;;;18.28;100.00
35989;BME280;22064;42.672;23.282;2023-08-06T05:00:05;93467.50;;;18.07;100.00
35989;BME280;22064;42.672;23.282;2023-08-06T05:02:31;93462.41;;;18.02;100.00
35989;BME280;22064;42.672;23.282;2023-08-06T05:05:04;93461.19;;;17.91;100.00
35989;BME280;22064;42.672;23.282;2023-08-06T05:07:30;93467.19;;;18.00;100.00
35989;BME280;22064;42.672;23.282;2023-08-06T05:09:56;93471.50;;;18.13;100.00
35989;BME280;22064;42.672;23.282;2023-08-06T05:12:22;93468.63;;;18.27;100.00
35989;BME280;22064;42.672;23.282;2023-08-06T05:14:48;93470.13;;;18.37;100.00
35989;BME280;22064;42.672;23.282;2023-08-06T05:17:14;93478.59;;;18.51;100.00
35989;BME280;22064;42.672;23.282;2023-08-06T05:19:40;93477.69;;;18.68;100.00
35989;BME280;22064;42.672;23.282;2023-08-06T05:22:06;93465.66;;;18.88;100.00
35989;BME280;22064;42.672;23.282;2023-08-06T05:24:31;93467.56;;;19.00;100.00
35989;BME280;22064;42.672;23.282;2023-08-06T05:26:57;93463.97;;;19.04;100.00
35989;BME280;22064;42.672;23.282;2023-08-06T05:29:23;93456.19;;;19.08;100.00
35989;BME280;22064;42.672;23.282;2023-08-06T05:31:49;93457.59;;;19.05;100.00
35989;BME280;22064;42.672;23.282;2023-08-06T05:34:15;93460.81;;;19.44;100.00
35989;BME280;22064;42.672;23.282;2023-08-06T05:36:41;93457.81;;;19.67;100.00
35989;BME280;22064;42.672;23.282;2023-08-06T05:39:07;93458.94;;;19.78;100.00
35989;BME280;22064;42.672;23.282;2023-08-06T05:41:33;93458.81;;;19.74;100.00
35989;BME280;22064;42.672;23.282;2023-08-06T05:43:59;93451.91;;;19.82;100.00
35989;BME280;22064;42.672;23.282;2023-08-06T05:46:25;93451.00;;;19.66;100.00
35989;BME280;22064;42.672;23.282;2023-08-06T05:48:51;93459.53;;;19.50;100.00
35989;BME280;22064;42.672;23.282;2023-08-06T05:51:17;93445.31;;;19.43;100.00
35989;BME280;22064;42.672;23.282;2023-08-06T05:53:43;93458.22;;;19.56;100.00
35989;BME280;22064;42.672;23.282;2023-08-06T05:56:11;93463.16;;;19.58;100.00
35989;BME280;22064;42.672;23.282;2023-08-06T05:58:37;93467.00;;;19.81;100.00
35989;BME280;22064;42.672;23.282;2023-08-06T06:01:03;93467.78;;;19.94;100.00
35989;BME280;22064;42.672;23.282;2023-08-06T06:03:29;93468.22;;;19.96;100.00
35989;BME280;22064;42.672;23.282;2023-08-06T06:05:54;93460.72;;;19.86;100.00
35989;BME280;22064;42.672;23.282;2023-08-06T06:08:20;93464.88;;;19.87;100.00
35989;BME280;22064;42.672;23.282;2023-08-06T06:10:46;93470.97;;;20.00;100.00
35989;BME280;22064;42.672;23.282;2023-08-06T06:13:12;93466.22;;;19.93;100.00
35989;BME280;22064;42.672;23.282;2023-08-06T06:15:38;93480.56;;;20.17;100.00
35989;BME280;22064;42.672;23.282;2023-08-06T06:18:04;93472.97;;;20.27;100.00
35989;BME280;22064;42.672;23.282;2023-08-06T06:20:32;93488.94;;;20.19;100.00
35989;BME280;22064;42.672;23.282;2023-08-06T06:22:59;93494.09;;;20.15;100.00
35989;BME280;22064;42.672;23.282;2023-08-06T06:25:25;93505.22;;;20.08;100.00
35989;BME280;22064;42.672;23.282;2023-08-06T06:27:51;93502.53;;;19.84;100.00
35989;BME280;22064;42.672;23.282;2023-08-06T06:30:17;93503.19;;;19.81;100.00
35989;BME280;22064;42.672;23.282;2023-08-06T06:32:43;93505.59;;;19.74;100.00
35989;BME280;22064;42.672;23.282;2023-08-06T06:35:09;93496.03;;;19.69;100.00
35989;BME280;22064;42.672;23.282;2023-08-06T06:37:35;93511.88;;;19.69;100.00
35989;BME280;22064;42.672;23.282;2023-08-06T06:40:01;93514.63;;;19.73;100.00
35989;BME280;22064;42.672;23.282;2023-08-06T06:42:27;93534.84;;;19.69;100.00
35989;BME280;22064;42.672;23.282;2023-08-06T06:44:58;93544.13;;;19.54;100.00
35989;BME280;22064;42.672;23.282;2023-08-06T06:47:24;93534.41;;;19.67;100.00
35989;BME280;22064;42.672;23.282;2023-08-06T06:49:50;93535.22;;;19.58;100.00
35989;BME280;22064;42.672;23.282;2023-08-06T06:52:16;93530.91;;;19.75;100.00
35989;BME280;22064;42.672;23.282;2023-08-06T06:54:42;93542.41;;;19.91;100.00
35989;BME280;22064;42.672;23.282;2023-08-06T06:57:08;93535.94;;;20.01;100.00
35989;BME280;22064;42.672;23.282;2023-08-06T06:59:34;93547.41;;;20.29;100.00
35989;BME280;22064;42.672;23.282;2023-08-06T07:02:00;93560.44;;;20.84;100.00
35989;BME280;22064;42.672;23.282;2023-08-06T07:04:26;93563.72;;;21.05;100.00
35989;BME280;22064;42.672;23.282;2023-08-06T07:06:52;93567.84;;;20.90;100.00
35989;BME280;22064;42.672;23.282;2023-08-06T07:09:18;93568.06;;;20.73;100.00
35989;BME280;22064;42.672;23.282;2023-08-06T07:11:44;93572.03;;;20.67;100.00
35989;BME280;22064;42.672;23.282;2023-08-06T07:14:10;93587.91;;;20.67;100.00
35989;BME280;22064;42.672;23.282;2023-08-06T07:16:36;93578.31;;;20.74;100.00
35989;BME280;22064;42.672;23.282;2023-08-06T07:19:02;93575.78;;;20.78;100.00
35989;BME280;22064;42.672;23.282;2023-08-06T07:21:28;93588.13;;;20.74;100.00
35989;BME280;22064;42.672;23.282;2023-08-06T07:23:54;93575.78;;;20.78;100.00
35989;BME280;22064;42.672;23.282;2023-08-06T07:26:20;93578.19;;;21.08;100.00
35989;BME280;22064;42.672;23.282;2023-08-06T07:28:46;93587.88;;;21.16;100.00
35989;BME280;22064;42.672;23.282;2023-08-06T07:31:12;93576.88;;;21.02;100.00
35989;BME280;22064;42.672;23.282;2023-08-06T07:33:38;93576.72;;;21.22;100.00
35989;BME280;22064;42.672;23.282;2023-08-06T07:36:11;93580.91;;;21.36;100.00
35989;BME280;22064;42.672;23.282;2023-08-06T07:38:37;93595.13;;;21.31;100.00
35989;BME280;22064;42.672;23.282;2023-08-06T07:41:04;93584.50;;;21.03;100.00
35989;BME280;22064;42.672;23.282;2023-08-06T07:43:30;93559.69;;;20.83;100.00
35989;BME280;22064;42.672;23.282;2023-08-06T07:46:00;93575.38;;;21.29;100.00
35989;BME280;22064;42.672;23.282;2023-08-06T07:48:26;93587.97;;;21.72;100.00
35989;BME280;22064;42.672;23.282;2023-08-06T07:50:53;93577.91;;;21.78;100.00
35989;BME280;22064;42.672;23.282;2023-08-06T07:53:23;93550.84;;;21.84;100.00
35989;BME280;22064;42.672;23.282;2023-08-06T07:55:53;93563.75;;;22.02;100.00
35989;BME280;22064;42.672;23.282;2023-08-06T07:58:20;93571.97;;;21.97;100.00
35989;BME280;22064;42.672;23.282;2023-08-06T08:00:46;93570.88;;;22.13;100.00
35989;BME280;22064;42.672;23.282;2023-08-06T08:03:14;93577.84;;;21.62;100.00
35989;BME280;22064;42.672;23.282;2023-08-06T08:05:44;93548.72;;;21.90;100.00
35989;BME280;22064;42.672;23.282;2023-08-06T08:08:10;93570.44;;;21.67;100.00
35989;BME280;22064;42.672;23.282;2023-08-06T08:10:36;93572.53;;;21.62;100.00
35989;BME280;22064;42.672;23.282;2023-08-06T08:13:03;93576.03;;;21.78;100.00
35989;BME280;22064;42.672;23.282;2023-08-06T08:15:31;93572.25;;;22.07;100.00
35989;BME280;22064;42.672;23.282;2023-08-06T08:17:57;93571.47;;;22.07;100.00
35989;BME280;22064;42.672;23.282;2023-08-06T08:20:24;93565.38;;;22.34;100.00
35989;BME280;22064;42.672;23.282;2023-08-06T08:22:50;93560.31;;;22.29;100.00
35989;BME280;22064;42.672;23.282;2023-08-06T08:25:16;93567.94;;;22.63;100.00
35989;BME280;22064;42.672;23.282;2023-08-06T08:27:42;93571.38;;;22.63;100.00
35989;BME280;22064;42.672;23.282;2023-08-06T08:30:08;93561.09;;;22.77;100.00
35989;BME280;22064;42.672;23.282;2023-08-06T08:32:34;93563.97;;;23.04;100.00
35989;BME280;22064;42.672;23.282;2023-08-06T08:35:00;93567.69;;;22.36;100.00
35989;BME280;22064;42.672;23.282;2023-08-06T08:37:26;93559.19;;;22.78;100.00
35989;BME280;22064;42.672;23.282;2023-08-06T08:39:52;93558.50;;;23.51;100.00
35989;BME280;22064;42.672;23.282;2023-08-06T08:42:18;93559.06;;;23.41;100.00
35989;BME280;22064;42.672;23.282;2023-08-06T08:44:44;93567.75;;;23.03;100.00
35989;BME280;22064;42.672;23.282;2023-08-06T08:47:11;93564.78;;;22.25;100.00
35989;BME280;22064;42.672;23.282;2023-08-06T08:49:38;93556.75;;;22.53;100.00
35989;BME280;22064;42.672;23.282;2023-08-06T08:52:04;93557.16;;;22.71;100.00
35989;BME280;22064;42.672;23.282;2023-08-06T08:54:37;93558.34;;;22.74;100.00
35989;BME280;22064;42.672;23.282;2023-08-06T08:57:04;93543.16;;;23.06;100.00
35989;BME280;22064;42.672;23.282;2023-08-06T08:59:33;93547.97;;;23.74;100.00
35989;BME280;22064;42.672;23.282;2023-08-06T09:02:01;93538.72;;;23.29;100.00
35989;BME280;22064;42.672;23.282;2023-08-06T09:04:30;93545.09;;;23.25;100.00
35989;BME280;22064;42.672;23.282;2023-08-06T09:07:01;93538.88;;;22.86;100.00
35989;BME280;22064;42.672;23.282;2023-08-06T09:09:34;93536.63;;;23.39;100.00
35989;BME280;22064;42.672;23.282;2023-08-06T09:12:12;93538.19;;;23.79;100.00
35989;BME280;22064;42.672;23.282;2023-08-06T09:14:40;93536.69;;;24.24;100.00
35989;BME280;22064;42.672;23.282;2023-08-06T09:17:07;93550.03;;;24.04;100.00
35989;BME280;22064;42.672;23.282;2023-08-06T09:19:34;93528.72;;;23.62;100.00
35989;BME280;22064;42.672;23.282;2023-08-06T09:22:00;93520.13;;;23.88;100.00
35989;BME280;22064;42.672;23.282;2023-08-06T09:24:26;93544.25;;;23.60;100.00
35989;BME280;22064;42.672;23.282;2023-08-06T09:26:52;93529.06;;;23.99;100.00
35989;BME280;22064;42.672;23.282;2023-08-06T09:29:18;93528.19;;;23.72;100.00
35989;BME280;22064;42.672;23.282;2023-08-06T09:31:44;93525.34;;;24.27;100.00
35989;BME280;22064;42.672;23.282;2023-08-06T09:34:26;93510.09;;;24.24;100.00
35989;BME280;22064;42.672;23.282;2023-08-06T09:36:53;93529.59;;;24.08;91.80
35989;BME280;22064;42.672;23.282;2023-08-06T09:39:29;93506.84;;;23.68;100.00
35989;BME280;22064;42.672;23.282;2023-08-06T09:41:57;93504.75;;;23.78;100.00
35989;BME280;22064;42.672;23.282;2023-08-06T09:44:25;93509.63;;;24.18;100.00
35989;BME280;22064;42.672;23.282;2023-08-06T09:46:53;93517.81;;;24.32;100.00
35989;BME280;22064;42.672;23.282;2023-08-06T09:49:21;93513.13;;;23.99;100.00
35989;BME280;22064;42.672;23.282;2023-08-06T09:51:47;93513.38;;;23.71;100.00
35989;BME280;22064;42.672;23.282;2023-08-06T09:54:17;93521.94;;;23.64;100.00
35989;BME280;22064;42.672;23.282;2023-08-06T09:56:44;93520.13;;;23.68;100.00
35989;BME280;22064;42.672;23.282;2023-08-06T09:59:11;93537.59;;;23.89;100.00
35989;BME280;22064;42.672;23.282;2023-08-06T10:01:37;93527.94;;;23.61;100.00
35989;BME280;22064;42.672;23.282;2023-08-06T10:04:05;93524.06;;;23.55;100.00
35989;BME280;22064;42.672;23.282;2023-08-06T10:06:34;93528.81;;;23.65;100.00
35989;BME280;22064;42.672;23.282;2023-08-06T10:09:04;93527.56;;;23.40;100.00
35989;BME280;22064;42.672;23.282;2023-08-06T10:11:30;93537.53;;;23.46;100.00
35989;BME280;22064;42.672;23.282;2023-08-06T10:14:15;93520.91;;;23.49;100.00
35989;BME280;22064;42.672;23.282;2023-08-06T10:16:42;93529.41;;;23.97;100.00
35989;BME280;22064;42.672;23.282;2023-08-06T10:19:12;93531.34;;;24.70;100.00
35989;BME280;22064;42.672;23.282;2023-08-06T10:21:38;93524.28;;;24.54;85.94
35989;BME280;22064;42.672;23.282;2023-08-06T10:24:08;93527.03;;;23.92;89.66
35989;BME280;22064;42.672;23.282;2023-08-06T10:26:37;93516.28;;;23.85;96.14
35989;BME280;22064;42.672;23.282;2023-08-06T10:29:37;93529.19;;;24.06;99.32
35989;BME280;22064;42.672;23.282;2023-08-06T10:32:04;93539.25;;;23.74;100.00
35989;BME280;22064;42.672;23.282;2023-08-06T10:34:58;93558.75;;;23.82;100.00
35989;BME280;22064;42.672;23.282;2023-08-06T10:37:25;93552.22;;;23.79;100.00
35989;BME280;22064;42.672;23.282;2023-08-06T10:40:01;93555.09;;;23.90;100.00
35989;BME280;22064;42.672;23.282;2023-08-06T10:42:28;93559.69;;;23.54;100.00
35989;BME280;22064;42.672;23.282;2023-08-06T10:45:14;93568.38;;;23.51;100.00
35989;BME280;22064;42.672;23.282;2023-08-06T10:47:42;93559.91;;;23.45;100.00
35989;BME280;22064;42.672;23.282;2023-08-06T10:50:11;93576.06;;;23.37;100.00
35989;BME280;22064;42.672;23.282;2023-08-06T10:52:37;93575.25;;;23.36;100.00
35989;BME280;22064;42.672;23.282;2023-08-06T10:55:04;93558.94;;;23.73;100.00
35989;BME280;22064;42.672;23.282;2023-08-06T10:57:30;93570.06;;;23.59;100.00
35989;BME280;22064;42.672;23.282;2023-08-06T10:59:56;93575.59;;;23.89;100.00
35989;BME280;22064;42.672;23.282;2023-08-06T11:02:21;93570.34;;;23.93;100.00
35989;BME280;22064;42.672;23.282;2023-08-06T11:04:48;93587.69;;;24.06;100.00
35989;BME280;22064;42.672;23.282;2023-08-06T11:07:15;93560.81;;;23.53;100.00
35989;BME280;22064;42.672;23.282;2023-08-06T11:09:41;93572.22;;;23.54;100.00
35989;BME280;22064;42.672;23.282;2023-08-06T11:12:10;93583.09;;;23.84;100.00
35989;BME280;22064;42.672;23.282;2023-08-06T11:14:36;93595.16;;;22.75;100.00
35989;BME280;22064;42.672;23.282;2023-08-06T11:17:02;93613.72;;;22.00;100.00
35989;BME280;22064;42.672;23.282;2023-08-06T11:19:28;93620.50;;;21.20;100.00
35989;BME280;22064;42.672;23.282;2023-08-06T11:21:54;93616.91;;;20.30;100.00
35989;BME280;22064;42.672;23.282;2023-08-06T11:24:20;93598.97;;;19.90;100.00
35989;BME280;22064;42.672;23.282;2023-08-06T11:26:46;93603.22;;;20.03;100.00
35989;BME280;22064;42.672;23.282;2023-08-06T11:29:12;93590.91;;;19.87;100.00
35989;BME280;22064;42.672;23.282;2023-08-06T11:31:42;93610.53;;;20.19;100.00
35989;BME280;22064;42.672;23.282;2023-08-06T11:34:08;93601.34;;;20.62;100.00
35989;BME280;22064;42.672;23.282;2023-08-06T11:36:40;93603.97;;;21.35;100.00
35989;BME280;22064;42.672;23.282;2023-08-06T11:39:06;93597.19;;;21.90;100.00
35989;BME280;22064;42.672;23.282;2023-08-06T11:41:32;93586.59;;;22.34;100.00
35989;BME280;22064;42.672;23.282;2023-08-06T11:43:59;93586.69;;;22.54;100.00
35989;BME280;22064;42.672;23.282;2023-08-06T11:46:25;93585.31;;;22.76;100.00
35989;BME280;22064;42.672;23.282;2023-08-06T11:48:56;93577.34;;;22.60;100.00
35989;BME280;22064;42.672;23.282;2023-08-06T11:51:25;93581.38;;;22.70;100.00
35989;BME280;22064;42.672;23.282;2023-08-06T11:53:55;93588.22;;;22.55;100.00
35989;BME280;22064;42.672;23.282;2023-08-06T11:56:22;93579.56;;;22.58;100.00
35989;BME280;22064;42.672;23.282;2023-08-06T11:58:48;93572.19;;;22.99;100.00
35989;BME280;22064;42.672;23.282;2023-08-06T12:01:14;93567.47;;;23.63;100.00
35989;BME280;22064;42.672;23.282;2023-08-06T12:03:40;93565.75;;;24.13;100.00
35989;BME280;22064;42.672;23.282;2023-08-06T12:06:06;93565.00;;;24.35;100.00
35989;BME280;22064;42.672;23.282;2023-08-06T12:08:33;93570.94;;;24.71;100.00
35989;BME280;22064;42.672;23.282;2023-08-06T12:10:59;93568.84;;;24.84;100.00
35989;BME280;22064;42.672;23.282;2023-08-06T12:13:25;93557.59;;;24.94;100.00
35989;BME280;22064;42.672;23.282;2023-08-06T12:15:51;93558.41;;;25.51;100.00
35989;BME280;22064;42.672;23.282;2023-08-06T12:18:20;93561.53;;;25.61;100.00
35989;BME280;22064;42.672;23.282;2023-08-06T12:20:46;93558.00;;;24.47;100.00
35989;BME280;22064;42.672;23.282;2023-08-06T12:23:11;93562.88;;;24.22;100.00
35989;BME280;22064;42.672;23.282;2023-08-06T12:25:41;93563.63;;;23.99;100.00
35989;BME280;22064;42.672;23.282;2023-08-06T12:28:07;93568.47;;;23.93;100.00
35989;BME280;22064;42.672;23.282;2023-08-06T12:30:35;93562.81;;;24.18;100.00
35989;BME280;22064;42.672;23.282;2023-08-06T12:33:01;93560.31;;;24.48;100.00
35989;BME280;22064;42.672;23.282;2023-08-06T12:35:27;93557.34;;;24.53;100.00
35989;BME280;22064;42.672;23.282;2023-08-06T12:37:53;93567.56;;;24.74;100.00
35989;BME280;22064;42.672;23.282;2023-08-06T12:40:20;93568.84;;;24.84;100.00
35989;BME280;22064;42.672;23.282;2023-08-06T12:42:46;93557.94;;;24.66;100.00
35989;BME280;22064;42.672;23.282;2023-08-06T12:45:12;93554.41;;;24.85;100.00